Goliah — WDD5908 — position and weather

sailwx.info

Track history (hours):
 
Tides and Currents Weather Stations Pressure Air Temp Water Temp Dewpoint Dewpoint Depression Visibility Wind Speed Wind Dir Waves Ship Positions

Goliah

Owner: Crowley Marine Services, Seattle, WA. More information available from US FCC via Universal Licensing System and Coast Guard Vessel Documentation Center.

Last reported at 2015-Sep-01 02:26 UTC. Time now 2015-Sep-01 10:13 UTC.
Position N 33°54' W 118°27'.

Length 33 m; draft 4.8 m.

Type: Tug. MMSI: 366898250.

Date/timePositionNaut miles runAvg speedWind from/ knotsBaromVisibWave heightAir tempDewpointWater temp
2015-Sep-01 02:26N 33°54' W 118°27'15 3.2
2015-Aug-31 21:33N 33°41' W 118°17'5 5.5
2015-Aug-31 20:33N 33°45' W 118°13'1 0.5
2015-Aug-31 19:33N 33°45' W 118°13'0 0.0
2015-Aug-31 18:33N 33°45' W 118°13'3 2.7
2015-Aug-31 17:33N 33°43' W 118°11'2 1.9
2015-Aug-31 16:24N 33°45' W 118°13'0 0.1
2015-Aug-31 15:33N 33°45' W 118°13'0 0.0
2015-Aug-31 14:29N 33°45' W 118°13'1 0.4
2015-Aug-31 12:32N 33°45' W 118°12'2 1.6
2015-Aug-31 11:31N 33°43' W 118°13'3 3.2
2015-Aug-31 10:33N 33°44' W 118°17'0 0.0
2015-Aug-31 08:33N 33°44' W 118°17'0 0.0
2015-Aug-31 07:32N 33°44' W 118°17'0 0.0
2015-Aug-31 06:32N 33°44' W 118°17'0 0.0
2015-Aug-31 01:27N 33°44' W 118°17'0 0.0
2015-Aug-31 00:25N 33°44' W 118°17'0 0.0
2015-Aug-30 23:28N 33°44' W 118°17'0 0.0
2015-Aug-30 22:32N 33°44' W 118°17'0 0.1
2015-Aug-30 21:33N 33°44' W 118°17'0 0.0
2015-Aug-30 16:33N 33°44' W 118°17'3 3.4
2015-Aug-30 15:33N 33°46' W 118°13'1 1.1
2015-Aug-30 14:33N 33°46' W 118°14'2 2.0
2015-Aug-30 13:33N 33°44' W 118°13'1 1.1
2015-Aug-30 12:32N 33°44' W 118°12'4 4.1
2015-Aug-30 11:33N 33°44' W 118°17'1 0.8
2015-Aug-30 10:33N 33°45' W 118°16'1 0.7
2015-Aug-30 09:33N 33°44' W 118°17'0 0.0
2015-Aug-30 08:33N 33°44' W 118°17'0 0.0
2015-Aug-30 07:33N 33°44' W 118°17'0 0.0
2015-Aug-30 06:33N 33°44' W 118°17'3 1.3
2015-Aug-30 04:19N 33°43' W 118°13'0 0.2
2015-Aug-30 03:30N 33°43' W 118°13'2 1.8
2015-Aug-30 02:32N 33°45' W 118°13'1 0.7
2015-Aug-30 01:32N 33°44' W 118°13'3 3.0
2015-Aug-30 00:32N 33°44' W 118°17'0 0.0
2015-Aug-29 23:33N 33°44' W 118°17'0 0.0
2015-Aug-29 22:33N 33°44' W 118°17'1 1.2
2015-Aug-29 21:30N 33°43' W 118°16'3 2.6
2015-Aug-29 20:16N 33°45' W 118°13'0 0.6
2015-Aug-29 19:32N 33°45' W 118°12'0 0.1
2015-Aug-29 18:28N 33°45' W 118°12'1 0.5
2015-Aug-29 17:32N 33°45' W 118°13'0 0.3
2015-Aug-29 16:32N 33°45' W 118°13'1 1.2
2015-Aug-29 15:29N 33°46' W 118°13'0 0.0
2015-Aug-29 14:24N 33°46' W 118°13'3 1.1
2015-Aug-29 11:24N 33°44' W 118°11'4 4.6
2015-Aug-29 10:32N 33°43' W 118°15'1 1.1
2015-Aug-29 09:30N 33°44' W 118°15'1 1.0
2015-Aug-29 08:17N 33°44' W 118°17'0 0.0
2015-Aug-29 07:20N 33°44' W 118°17'3 3.3
2015-Aug-29 06:23N 33°46' W 118°13'0 0.0
2015-Aug-29 05:30N 33°45' W 118°13'3 1.3
2015-Aug-29 03:33N 33°44' W 118°11'5 4.6
2015-Aug-29 02:31N 33°44' W 118°17'0 0.1
2015-Aug-29 01:33N 33°44' W 118°17'0 0.0
2015-Aug-29 00:32N 33°44' W 118°17'0 0.0
2015-Aug-28 23:31N 33°44' W 118°17'0 0.0
2015-Aug-28 22:33N 33°44' W 118°17'0 0.0
2015-Aug-28 21:33N 33°44' W 118°17'2 1.7
2015-Aug-28 20:21N 33°43' W 118°15'3 3.6
2015-Aug-28 19:33N 33°45' W 118°13'1 1.1
2015-Aug-28 18:32N 33°46' W 118°13'1 1.3
2015-Aug-28 17:33N 33°45' W 118°13'0 0.0
2015-Aug-28 16:33N 33°45' W 118°13'0 0.0
2015-Aug-28 15:33N 33°45' W 118°13'0 0.0
2015-Aug-28 14:33N 33°45' W 118°13'1 1.4
2015-Aug-28 13:33N 33°44' W 118°12'0 0.3
2015-Aug-28 12:27N 33°44' W 118°12'3 2.6
2015-Aug-28 11:28N 33°46' W 118°13'1 0.7
2015-Aug-28 10:33N 33°46' W 118°14'3 0.5
2015-Aug-28 05:19N 33°44' W 118°17'2 3.1
2015-Aug-28 04:33N 33°43' W 118°15'3 2.8
2015-Aug-28 03:33N 33°45' W 118°13'1 0.5
2015-Aug-28 02:32N 33°45' W 118°13'2 2.5
2015-Aug-28 01:33N 33°44' W 118°15'1 1.5
2015-Aug-28 00:33N 33°45' W 118°16'1 0.7
2015-Aug-27 23:33N 33°46' W 118°15'1 0.9
2015-Aug-27 22:33N 33°45' W 118°17'3 3.1
2015-Aug-27 21:33N 33°43' W 118°15'2 2.1
2015-Aug-27 20:25N 33°44' W 118°17'0 0.0
2015-Aug-27 19:33N 33°44' W 118°17'0 0.0
2015-Aug-27 18:31N 33°44' W 118°17'0 0.0
2015-Aug-27 17:23N 33°44' W 118°17'0 0.4
2015-Aug-27 16:31N 33°44' W 118°17'1 1.2
2015-Aug-27 15:33N 33°43' W 118°16'4 3.6
2015-Aug-27 14:33N 33°46' W 118°13'1 1.3
2015-Aug-27 13:33N 33°45' W 118°13'5 4.8
2015-Aug-27 12:31N 33°41' W 118°09'6 6.7
2015-Aug-27 11:33N 33°46' W 118°13'0 0.1
2015-Aug-27 10:33N 33°46' W 118°13'3 3.2
2015-Aug-27 09:33N 33°44' W 118°17'0 0.0
2015-Aug-27 08:22N 33°44' W 118°17'0 0.0
2015-Aug-27 07:18N 33°44' W 118°17'0 0.0
2015-Aug-27 06:33N 33°44' W 118°17'0 0.0
2015-Aug-27 05:32N 33°44' W 118°17'3 2.6
2015-Aug-27 04:33N 33°43' W 118°14'2 2.1
2015-Aug-27 03:33N 33°45' W 118°13'1 0.5
2015-Aug-27 02:33N 33°44' W 118°12'1 1.3
2015-Aug-27 01:33N 33°45' W 118°13'0 0.0
2015-Aug-27 00:34N 33°45' W 118°13'5 5.2
2015-Aug-26 23:33N 33°41' W 118°09'5 4.8
2015-Aug-26 22:33N 33°45' W 118°13'0 0.1
2015-Aug-26 21:33N 33°45' W 118°13'2 1.7
2015-Aug-26 20:33N 33°44' W 118°11'2 1.6
2015-Aug-26 19:33N 33°43' W 118°13'3 1.4
2015-Aug-26 17:07N 33°44' W 118°17'0 0.0
2015-Aug-26 16:33N 33°44' W 118°17'0 0.0
2015-Aug-26 15:28N 33°44' W 118°17'1 1.0
2015-Aug-26 14:32N 33°45' W 118°17'0 0.5
2015-Aug-26 13:33N 33°45' W 118°16'1 0.8
2015-Aug-26 12:33N 33°44' W 118°17'2 1.5
2015-Aug-26 11:33N 33°46' W 118°16'0 0.3
2015-Aug-26 10:33N 33°46' W 118°16'1 1.1
2015-Aug-26 09:25N 33°44' W 118°17'0 0.0
2015-Aug-26 08:19N 33°44' W 118°17'0 0.0
2015-Aug-26 07:32N 33°44' W 118°17'0 0.0
2015-Aug-26 06:26N 33°44' W 118°17'0 0.0
2015-Aug-26 03:31N 33°44' W 118°17'3 2.8
2015-Aug-26 02:33N 33°45' W 118°14'1 0.6
2015-Aug-26 01:33N 33°45' W 118°14'2 2.2
2015-Aug-26 00:33N 33°44' W 118°16'1 0.5
2015-Aug-25 23:28N 33°44' W 118°17'0 0.0
2015-Aug-25 22:33N 33°44' W 118°17'0 0.0
2015-Aug-25 21:27N 33°44' W 118°17'0 0.0
2015-Aug-25 17:33N 33°44' W 118°17'0 0.0
2015-Aug-25 14:21N 33°44' W 118°17'0 0.0
2015-Aug-25 13:29N 33°44' W 118°17'0 0.0
2015-Aug-25 12:33N 33°44' W 118°17'1 1.4
2015-Aug-25 11:33N 33°44' W 118°15'1 1.1
2015-Aug-25 10:33N 33°44' W 118°16'1 0.9
2015-Aug-25 09:33N 33°44' W 118°17'0 0.0
2015-Aug-25 08:14N 33°44' W 118°17'0 0.0
2015-Aug-25 04:31N 33°44' W 118°17'1 0.8
2015-Aug-25 03:33N 33°45' W 118°16'1 1.0
2015-Aug-25 02:33N 33°46' W 118°15'3 2.7
2015-Aug-25 01:34N 33°43' W 118°16'2 2.3
2015-Aug-25 00:33N 33°45' W 118°17'1 0.9
2015-Aug-24 23:33N 33°44' W 118°17'0 0.0
2015-Aug-24 22:25N 33°44' W 118°17'0 0.0
2015-Aug-24 21:33N 33°44' W 118°17'0 0.0
2015-Aug-24 20:31N 33°44' W 118°17'0 0.0
2015-Aug-24 17:03N 33°44' W 118°17'0 0.0
2015-Aug-24 16:13N 33°44' W 118°17'0 0.2
2015-Aug-24 14:33N 33°44' W 118°17'4 3.7
2015-Aug-24 13:33N 33°46' W 118°13'2 2.0
2015-Aug-24 12:33N 33°44' W 118°13'0 0.5
2015-Aug-24 11:33N 33°45' W 118°13'0 0.2
2015-Aug-24 10:32N 33°45' W 118°13'1 0.6
2015-Aug-24 09:33N 33°45' W 118°12'1 1.2
2015-Aug-24 08:33N 33°44' W 118°12'4 1.8
2015-Aug-24 06:20N 33°44' W 118°17'0 0.0
2015-Aug-24 05:33N 33°44' W 118°17'0 0.0
2015-Aug-24 04:26N 33°44' W 118°17'0 0.0
2015-Aug-24 03:11N 33°44' W 118°17'1 1.6
2015-Aug-24 02:33N 33°45' W 118°16'2 1.5
2015-Aug-24 01:28N 33°44' W 118°16'0 0.2
2015-Aug-24 00:33N 33°44' W 118°16'1 0.7
2015-Aug-23 23:33N 33°44' W 118°17'0 0.0
2015-Aug-23 22:33N 33°44' W 118°17'0 0.0
2015-Aug-23 21:32N 33°44' W 118°17'0 0.3
2015-Aug-23 20:31N 33°44' W 118°17'1 1.1
2015-Aug-23 19:33N 33°43' W 118°16'1 1.2
2015-Aug-23 18:30N 33°44' W 118°17'0 0.0
2015-Aug-23 15:27N 33°44' W 118°17'0 0.3
2015-Aug-23 14:22N 33°45' W 118°17'0 0.3
2015-Aug-23 13:28N 33°44' W 118°17'0 0.1
2015-Aug-23 12:05N 33°44' W 118°17'0 0.0
2015-Aug-23 11:33N 33°44' W 118°17'1 0.6
2015-Aug-23 10:32N 33°45' W 118°16'0 0.5
2015-Aug-23 09:33N 33°45' W 118°16'1 1.0
2015-Aug-23 08:33N 33°44' W 118°17'3 0.5
2015-Aug-23 03:08N 33°43' W 118°14'2 3.2
2015-Aug-23 02:33N 33°45' W 118°12'2 1.6
2015-Aug-23 01:31N 33°44' W 118°11'4 3.4
2015-Aug-23 00:11N 33°45' W 118°16'1 1.1
2015-Aug-22 23:33N 33°45' W 118°16'1 0.9
2015-Aug-22 22:19N 33°44' W 118°17'0 0.0
2015-Aug-22 21:06N 33°44' W 118°17'0 0.0
2015-Aug-22 20:16N 33°44' W 118°17'0 0.0
2015-Aug-22 19:25N 33°44' W 118°17'1 0.2
2015-Aug-22 13:31N 33°45' W 118°17'0 0.1
2015-Aug-22 10:34N 33°45' W 118°16'0 0.2
2015-Aug-22 09:33N 33°45' W 118°16'  
Track history (hours):
 
Tides and Currents Weather Stations Pressure Air Temp Water Temp Dewpoint Dewpoint Depression Visibility Wind Speed Wind Dir Waves Ship Positions

Goliah

Owner: Crowley Marine Services, Seattle, WA. More information available from US FCC via Universal Licensing System and Coast Guard Vessel Documentation Center.

Last reported at 2015-Sep-01 02:26 UTC. Time now 2015-Sep-01 10:13 UTC.
Position N 33°54' W 118°27'.

Length 33 m; draft 4.8 m.

Type: Tug. MMSI: 366898250.

Date/timePositionNaut miles runAvg speedWind from/ knotsBaromVisibWave heightAir tempDewpointWater temp
2015-Sep-01 02:26N 33°54' W 118°27'15 3.2
2015-Aug-31 21:33N 33°41' W 118°17'5 5.5
2015-Aug-31 20:33N 33°45' W 118°13'1 0.5
2015-Aug-31 19:33N 33°45' W 118°13'0 0.0
2015-Aug-31 18:33N 33°45' W 118°13'3 2.7
2015-Aug-31 17:33N 33°43' W 118°11'2 1.9
2015-Aug-31 16:24N 33°45' W 118°13'0 0.1
2015-Aug-31 15:33N 33°45' W 118°13'0 0.0
2015-Aug-31 14:29N 33°45' W 118°13'1 0.4
2015-Aug-31 12:32N 33°45' W 118°12'2 1.6
2015-Aug-31 11:31N 33°43' W 118°13'3 3.2
2015-Aug-31 10:33N 33°44' W 118°17'0 0.0
2015-Aug-31 08:33N 33°44' W 118°17'0 0.0
2015-Aug-31 07:32N 33°44' W 118°17'0 0.0
2015-Aug-31 06:32N 33°44' W 118°17'0 0.0
2015-Aug-31 01:27N 33°44' W 118°17'0 0.0
2015-Aug-31 00:25N 33°44' W 118°17'0 0.0
2015-Aug-30 23:28N 33°44' W 118°17'0 0.0
2015-Aug-30 22:32N 33°44' W 118°17'0 0.1
2015-Aug-30 21:33N 33°44' W 118°17'0 0.0
2015-Aug-30 16:33N 33°44' W 118°17'3 3.4
2015-Aug-30 15:33N 33°46' W 118°13'1 1.1
2015-Aug-30 14:33N 33°46' W 118°14'2 2.0
2015-Aug-30 13:33N 33°44' W 118°13'1 1.1
2015-Aug-30 12:32N 33°44' W 118°12'4 4.1
2015-Aug-30 11:33N 33°44' W 118°17'1 0.8
2015-Aug-30 10:33N 33°45' W 118°16'1 0.7
2015-Aug-30 09:33N 33°44' W 118°17'0 0.0
2015-Aug-30 08:33N 33°44' W 118°17'0 0.0
2015-Aug-30 07:33N 33°44' W 118°17'0 0.0
2015-Aug-30 06:33N 33°44' W 118°17'3 1.3
2015-Aug-30 04:19N 33°43' W 118°13'0 0.2
2015-Aug-30 03:30N 33°43' W 118°13'2 1.8
2015-Aug-30 02:32N 33°45' W 118°13'1 0.7
2015-Aug-30 01:32N 33°44' W 118°13'3 3.0
2015-Aug-30 00:32N 33°44' W 118°17'0 0.0
2015-Aug-29 23:33N 33°44' W 118°17'0 0.0
2015-Aug-29 22:33N 33°44' W 118°17'1 1.2
2015-Aug-29 21:30N 33°43' W 118°16'3 2.6
2015-Aug-29 20:16N 33°45' W 118°13'0 0.6
2015-Aug-29 19:32N 33°45' W 118°12'0 0.1
2015-Aug-29 18:28N 33°45' W 118°12'1 0.5
2015-Aug-29 17:32N 33°45' W 118°13'0 0.3
2015-Aug-29 16:32N 33°45' W 118°13'1 1.2
2015-Aug-29 15:29N 33°46' W 118°13'0 0.0
2015-Aug-29 14:24N 33°46' W 118°13'3 1.1
2015-Aug-29 11:24N 33°44' W 118°11'4 4.6
2015-Aug-29 10:32N 33°43' W 118°15'1 1.1
2015-Aug-29 09:30N 33°44' W 118°15'1 1.0
2015-Aug-29 08:17N 33°44' W 118°17'0 0.0
2015-Aug-29 07:20N 33°44' W 118°17'3 3.3
2015-Aug-29 06:23N 33°46' W 118°13'0 0.0
2015-Aug-29 05:30N 33°45' W 118°13'3 1.3
2015-Aug-29 03:33N 33°44' W 118°11'5 4.6
2015-Aug-29 02:31N 33°44' W 118°17'0 0.1
2015-Aug-29 01:33N 33°44' W 118°17'0 0.0
2015-Aug-29 00:32N 33°44' W 118°17'0 0.0
2015-Aug-28 23:31N 33°44' W 118°17'0 0.0
2015-Aug-28 22:33N 33°44' W 118°17'0 0.0
2015-Aug-28 21:33N 33°44' W 118°17'2 1.7
2015-Aug-28 20:21N 33°43' W 118°15'3 3.6
2015-Aug-28 19:33N 33°45' W 118°13'1 1.1
2015-Aug-28 18:32N 33°46' W 118°13'1 1.3
2015-Aug-28 17:33N 33°45' W 118°13'0 0.0
2015-Aug-28 16:33N 33°45' W 118°13'0 0.0
2015-Aug-28 15:33N 33°45' W 118°13'0 0.0
2015-Aug-28 14:33N 33°45' W 118°13'1 1.4
2015-Aug-28 13:33N 33°44' W 118°12'0 0.3
2015-Aug-28 12:27N 33°44' W 118°12'3 2.6
2015-Aug-28 11:28N 33°46' W 118°13'1 0.7
2015-Aug-28 10:33N 33°46' W 118°14'3 0.5
2015-Aug-28 05:19N 33°44' W 118°17'2 3.1
2015-Aug-28 04:33N 33°43' W 118°15'3 2.8
2015-Aug-28 03:33N 33°45' W 118°13'1 0.5
2015-Aug-28 02:32N 33°45' W 118°13'2 2.5
2015-Aug-28 01:33N 33°44' W 118°15'1 1.5
2015-Aug-28 00:33N 33°45' W 118°16'1 0.7
2015-Aug-27 23:33N 33°46' W 118°15'1 0.9
2015-Aug-27 22:33N 33°45' W 118°17'3 3.1
2015-Aug-27 21:33N 33°43' W 118°15'2 2.1
2015-Aug-27 20:25N 33°44' W 118°17'0 0.0
2015-Aug-27 19:33N 33°44' W 118°17'0 0.0
2015-Aug-27 18:31N 33°44' W 118°17'0 0.0
2015-Aug-27 17:23N 33°44' W 118°17'0 0.4
2015-Aug-27 16:31N 33°44' W 118°17'1 1.2
2015-Aug-27 15:33N 33°43' W 118°16'4 3.6
2015-Aug-27 14:33N 33°46' W 118°13'1 1.3
2015-Aug-27 13:33N 33°45' W 118°13'5 4.8
2015-Aug-27 12:31N 33°41' W 118°09'6 6.7
2015-Aug-27 11:33N 33°46' W 118°13'0 0.1
2015-Aug-27 10:33N 33°46' W 118°13'3 3.2
2015-Aug-27 09:33N 33°44' W 118°17'0 0.0
2015-Aug-27 08:22N 33°44' W 118°17'0 0.0
2015-Aug-27 07:18N 33°44' W 118°17'0 0.0
2015-Aug-27 06:33N 33°44' W 118°17'0 0.0
2015-Aug-27 05:32N 33°44' W 118°17'3 2.6
2015-Aug-27 04:33N 33°43' W 118°14'2 2.1
2015-Aug-27 03:33N 33°45' W 118°13'1 0.5
2015-Aug-27 02:33N 33°44' W 118°12'1 1.3
2015-Aug-27 01:33N 33°45' W 118°13'0 0.0
2015-Aug-27 00:34N 33°45' W 118°13'5 5.2
2015-Aug-26 23:33N 33°41' W 118°09'5 4.8
2015-Aug-26 22:33N 33°45' W 118°13'0 0.1
2015-Aug-26 21:33N 33°45' W 118°13'2 1.7
2015-Aug-26 20:33N 33°44' W 118°11'2 1.6
2015-Aug-26 19:33N 33°43' W 118°13'3 1.4
2015-Aug-26 17:07N 33°44' W 118°17'0 0.0
2015-Aug-26 16:33N 33°44' W 118°17'0 0.0
2015-Aug-26 15:28N 33°44' W 118°17'1 1.0
2015-Aug-26 14:32N 33°45' W 118°17'0 0.5
2015-Aug-26 13:33N 33°45' W 118°16'1 0.8
2015-Aug-26 12:33N 33°44' W 118°17'2 1.5
2015-Aug-26 11:33N 33°46' W 118°16'0 0.3
2015-Aug-26 10:33N 33°46' W 118°16'1 1.1
2015-Aug-26 09:25N 33°44' W 118°17'0 0.0
2015-Aug-26 08:19N 33°44' W 118°17'0 0.0
2015-Aug-26 07:32N 33°44' W 118°17'0 0.0
2015-Aug-26 06:26N 33°44' W 118°17'0 0.0
2015-Aug-26 03:31N 33°44' W 118°17'3 2.8
2015-Aug-26 02:33N 33°45' W 118°14'1 0.6
2015-Aug-26 01:33N 33°45' W 118°14'2 2.2
2015-Aug-26 00:33N 33°44' W 118°16'1 0.5
2015-Aug-25 23:28N 33°44' W 118°17'0 0.0
2015-Aug-25 22:33N 33°44' W 118°17'0 0.0
2015-Aug-25 21:27N 33°44' W 118°17'0 0.0
2015-Aug-25 17:33N 33°44' W 118°17'0 0.0
2015-Aug-25 14:21N 33°44' W 118°17'0 0.0
2015-Aug-25 13:29N 33°44' W 118°17'0 0.0
2015-Aug-25 12:33N 33°44' W 118°17'1 1.4
2015-Aug-25 11:33N 33°44' W 118°15'1 1.1
2015-Aug-25 10:33N 33°44' W 118°16'1 0.9
2015-Aug-25 09:33N 33°44' W 118°17'0 0.0
2015-Aug-25 08:14N 33°44' W 118°17'0 0.0
2015-Aug-25 04:31N 33°44' W 118°17'1 0.8
2015-Aug-25 03:33N 33°45' W 118°16'1 1.0
2015-Aug-25 02:33N 33°46' W 118°15'3 2.7
2015-Aug-25 01:34N 33°43' W 118°16'2 2.3
2015-Aug-25 00:33N 33°45' W 118°17'1 0.9
2015-Aug-24 23:33N 33°44' W 118°17'0 0.0
2015-Aug-24 22:25N 33°44' W 118°17'0 0.0
2015-Aug-24 21:33N 33°44' W 118°17'0 0.0
2015-Aug-24 20:31N 33°44' W 118°17'0 0.0
2015-Aug-24 17:03N 33°44' W 118°17'0 0.0
2015-Aug-24 16:13N 33°44' W 118°17'0 0.2
2015-Aug-24 14:33N 33°44' W 118°17'4 3.7
2015-Aug-24 13:33N 33°46' W 118°13'2 2.0
2015-Aug-24 12:33N 33°44' W 118°13'0 0.5
2015-Aug-24 11:33N 33°45' W 118°13'0 0.2
2015-Aug-24 10:32N 33°45' W 118°13'1 0.6
2015-Aug-24 09:33N 33°45' W 118°12'1 1.2
2015-Aug-24 08:33N 33°44' W 118°12'4 1.8
2015-Aug-24 06:20N 33°44' W 118°17'0 0.0
2015-Aug-24 05:33N 33°44' W 118°17'0 0.0
2015-Aug-24 04:26N 33°44' W 118°17'0 0.0
2015-Aug-24 03:11N 33°44' W 118°17'1 1.6
2015-Aug-24 02:33N 33°45' W 118°16'2 1.5
2015-Aug-24 01:28N 33°44' W 118°16'0 0.2
2015-Aug-24 00:33N 33°44' W 118°16'1 0.7
2015-Aug-23 23:33N 33°44' W 118°17'0 0.0
2015-Aug-23 22:33N 33°44' W 118°17'0 0.0
2015-Aug-23 21:32N 33°44' W 118°17'0 0.3
2015-Aug-23 20:31N 33°44' W 118°17'1 1.1
2015-Aug-23 19:33N 33°43' W 118°16'1 1.2
2015-Aug-23 18:30N 33°44' W 118°17'0 0.0
2015-Aug-23 15:27N 33°44' W 118°17'0 0.3
2015-Aug-23 14:22N 33°45' W 118°17'0 0.3
2015-Aug-23 13:28N 33°44' W 118°17'0 0.1
2015-Aug-23 12:05N 33°44' W 118°17'0 0.0
2015-Aug-23 11:33N 33°44' W 118°17'1 0.6
2015-Aug-23 10:32N 33°45' W 118°16'0 0.5
2015-Aug-23 09:33N 33°45' W 118°16'1 1.0
2015-Aug-23 08:33N 33°44' W 118°17'3 0.5
2015-Aug-23 03:08N 33°43' W 118°14'2 3.2
2015-Aug-23 02:33N 33°45' W 118°12'2 1.6
2015-Aug-23 01:31N 33°44' W 118°11'4 3.4
2015-Aug-23 00:11N 33°45' W 118°16'1 1.1
2015-Aug-22 23:33N 33°45' W 118°16'1 0.9
2015-Aug-22 22:19N 33°44' W 118°17'0 0.0
2015-Aug-22 21:06N 33°44' W 118°17'0 0.0
2015-Aug-22 20:16N 33°44' W 118°17'0 0.0
2015-Aug-22 19:25N 33°44' W 118°17'1 0.2
2015-Aug-22 13:31N 33°45' W 118°17'0 0.1
2015-Aug-22 10:34N 33°45' W 118°16'0 0.2
2015-Aug-22 09:33N 33°45' W 118°16'  

Dump ship's entire track history